Flight Track Log - Related Links

Times and Time Zones

All times are in EDT time to prevent confusion due to time zone crossing. See the PGA603 flight status page for this flight to view local times or setup timezone preferences in your user account.

Time Position Orientation Groundspeed Altitude Reporting Facility
EDT Latitude Longitude Course Direction KTS MPH feet Rate Location/Type
Sun 08:58:32 AM 50.5928 3.9403 228° Southwest  Level Estimated
Sun 08:59:32 AM 50.5244 3.8213 228° Southwest  Level Estimated
Sun 09:00:32 AM 50.4559 3.7025 228° Southwest  Level Estimated
Sun 09:01:32 AM 50.3872 3.5842 228° Southwest  Level Estimated
Sun 09:02:32 AM 50.3185 3.4662 228° Southwest  Level Estimated
Sun 09:03:32 AM 50.2496 3.3485 227° Southwest  Level Estimated
Sun 09:04:32 AM 50.1806 3.2311 227° Southwest  Level Estimated
Sun 09:05:32 AM 50.1115 3.1141 227° Southwest  Level Estimated
Sun 09:06:32 AM 50.0422 2.9974 227° Southwest  Level Estimated
Sun 09:07:32 AM 49.9729 2.8811 227° Southwest  Level Estimated
Sun 09:08:32 AM 49.9034 2.7651 227° Southwest  Level Estimated
Sun 09:09:32 AM 49.8338 2.6494 227° Southwest  Level Estimated
Sun 09:10:32 AM 49.7641 2.5341 227° Southwest  Level Estimated
Sun 09:11:32 AM 49.6943 2.4191 227° Southwest  Level Estimated
Sun 09:12:32 AM 49.6244 2.3044 227° Southwest  Level Estimated
Sun 09:13:32 AM 49.5543 2.1901 227° Southwest  Level Estimated
Sun 09:14:32 AM 49.4842 2.0760 226° Southwest  Level Estimated
Sun 09:15:32 AM 49.4139 1.9624 226° Southwest  Level Estimated
Sun 09:16:32 AM 49.3436 1.8490 226° Southwest  Level Estimated
Sun 09:17:32 AM 49.2731 1.7359 226° Southwest  Level Estimated
Sun 09:18:32 AM 49.2025 1.6232 226° Southwest  Level Estimated
Sun 09:19:32 AM 49.1318 1.5108 226° Southwest  Level Estimated
Sun 09:20:32 AM 49.0609 1.3987 226° Southwest  Level Estimated
Sun 09:21:32 AM 48.9900 1.2870 226° Southwest  Level Estimated
Sun 09:22:32 AM 48.9190 1.1755 226° Southwest  Level Estimated
Sun 09:23:32 AM 48.8479 1.0644 226° Southwest  Level Estimated
Sun 09:24:32 AM 48.7766 0.9536 226° Southwest  Level Estimated
Sun 09:25:32 AM 48.7053 0.8431 226° Southwest  Level Estimated
Sun 09:26:32 AM 48.6338 0.7329 225° Southwest  Level Estimated
Sun 09:27:32 AM 48.5622 0.6231 225° Southwest  Level Estimated
Sun 09:28:32 AM 48.4906 0.5135 225° Southwest  Level Estimated
Sun 09:29:32 AM 48.4188 0.4043 225° Southwest  Level Estimated
Sun 09:30:32 AM 48.3469 0.2953 225° Southwest  Level Estimated
Sun 09:31:32 AM 48.2750 0.1867 225° Southwest  Level Estimated
Sun 09:32:32 AM 48.2029 0.0784 225° Southwest  Level Estimated
Sun 09:33:32 AM 48.1307 -0.0297 225° Southwest  Level Estimated
Sun 09:34:32 AM 48.0584 -0.1374 225° Southwest  Level Estimated
Sun 09:35:32 AM 47.9860 -0.2448 225° Southwest  Level Estimated
Sun 09:36:32 AM 47.9136 -0.3519 225° Southwest  Level Estimated
Sun 09:37:32 AM 47.8410 -0.4587 225° Southwest  Level Estimated
Sun 09:38:32 AM 47.7683 -0.5653 225° Southwest  Level Estimated
Sun 09:39:32 AM 47.6955 -0.6715 224° Southwest  Level Estimated
Sun 09:40:32 AM 47.6227 -0.7774 224° Southwest  Level Estimated
Sun 09:41:32 AM 47.5497 -0.8830 224° Southwest  Level Estimated
Sun 09:42:32 AM 47.4766 -0.9884 224° Southwest  Level Estimated
Sun 09:43:32 AM 47.4035 -1.0934 224° Southwest  Level Estimated
Sun 09:44:32 AM 47.3302 -1.1982 224° Southwest  Level Estimated
Sun 09:45:32 AM 47.2568 -1.3026 224° Southwest  Level Estimated
Sun 09:46:32 AM 47.1834 -1.4068 224° Southwest  Level Estimated
Sun 09:47:32 AM 47.1098 -1.5107 224° Southwest  Level Estimated
Sun 09:48:32 AM 47.0362 -1.6143 224° Southwest  Level Estimated
Sun 09:49:32 AM 46.9625 -1.7176 224° Southwest  Level Estimated
Sun 09:50:32 AM 46.8886 -1.8206 224° Southwest  Level Estimated
Sun 09:51:32 AM 46.8147 -1.9233 224° Southwest  Level Estimated
Sun 09:52:32 AM 46.7407 -2.0258 223° Southwest  Level Estimated
Sun 09:53:32 AM 46.6666 -2.1280 223° Southwest  Level Estimated
Sun 09:54:32 AM 46.5924 -2.2299 223° Southwest  Level Estimated
Sun 09:55:32 AM 46.5182 -2.3315 223° Southwest  Level Estimated
Sun 09:56:32 AM 46.4438 -2.4328 223° Southwest  Level Estimated
Sun 09:57:32 AM 46.3693 -2.5339 223° Southwest  Level Estimated
Sun 09:58:32 AM 46.2948 -2.6347 223° Southwest  Level Estimated
Sun 09:59:32 AM 46.2201 -2.7352 223° Southwest  Level Estimated
Sun 10:00:32 AM 46.1454 -2.8355 223° Southwest  Level Estimated
Sun 10:01:32 AM 46.0706 -2.9354 223° Southwest  Level Estimated
Sun 10:02:32 AM 45.9957 -3.0351 223° Southwest  Level Estimated
Sun 10:03:32 AM 45.9207 -3.1346 223° Southwest  Level Estimated
Sun 10:04:32 AM 45.8457 -3.2337 223° Southwest  Level Estimated
Sun 10:05:32 AM 45.7705 -3.3326 222° Southwest  Level Estimated
Sun 10:06:32 AM 45.6953 -3.4313 222° Southwest  Level Estimated
Sun 10:07:32 AM 45.6200 -3.5296 222° Southwest  Level Estimated
Sun 10:08:32 AM 45.5446 -3.6277 222° Southwest  Level Estimated
Sun 10:09:32 AM 45.4691 -3.7255 222° Southwest  Level Estimated
Sun 10:10:32 AM 45.3935 -3.8231 222° Southwest  Level Estimated
Sun 10:11:32 AM 45.3178 -3.9204 222° Southwest  Level Estimated
Sun 10:12:32 AM 45.2421 -4.0175 222° Southwest  Level Estimated
Sun 10:13:32 AM 45.1663 -4.1143 222° Southwest  Level Estimated
Sun 10:14:32 AM 45.0904 -4.2108 222° Southwest  Level Estimated
Sun 10:15:32 AM 45.0144 -4.3071 222° Southwest  Level Estimated
Sun 10:16:32 AM 44.9383 -4.4031 222° Southwest  Level Estimated
Sun 10:17:32 AM 44.8622 -4.4989 222° Southwest  Level Estimated
Sun 10:18:32 AM 44.7859 -4.5944 222° Southwest  Level Estimated
Sun 10:19:32 AM 44.7096 -4.6897 222° Southwest  Level Estimated
Sun 10:20:32 AM 44.6333 -4.7847 221° Southwest  Level Estimated
Sun 10:21:32 AM 44.5568 -4.8795 221° Southwest  Level Estimated
Sun 10:22:32 AM 44.4803 -4.9740 221° Southwest  Level Estimated
Sun 10:23:32 AM 44.4036 -5.0683 221° Southwest  Level Estimated
Sun 10:24:32 AM 44.3269 -5.1623 221° Southwest  Level Estimated
Sun 10:25:32 AM 44.2502 -5.2561 221° Southwest  Level Estimated
Sun 10:26:32 AM 44.1733 -5.3496 221° Southwest  Level Estimated
Sun 10:27:32 AM 44.0964 -5.4429 221° Southwest  Level Estimated
Sun 10:28:32 AM 44.0194 -5.5359 221° Southwest  Level Estimated
Sun 10:29:32 AM 43.9423 -5.6287 221° Southwest  Level Estimated
Sun 10:30:32 AM 43.8652 -5.7213 221° Southwest  Level Estimated
Sun 10:31:32 AM 43.7879 -5.8136 221° Southwest  Level Estimated
Sun 10:32:32 AM 43.7106 -5.9057 221° Southwest  Level Estimated
Sun 10:33:32 AM 43.6333 -5.9976 221° Southwest  Level Estimated
Sun 10:34:32 AM 43.5558 -6.0892 221° Southwest  Level Estimated
Sun 10:35:32 AM 43.4783 -6.1806 220° Southwest  Level Estimated
Sun 10:36:32 AM 43.4007 -6.2717 220° Southwest  Level Estimated
Sun 10:37:32 AM 43.3230 -6.3626 220° Southwest  Level Estimated
Sun 10:38:32 AM 43.2453 -6.4533 220° Southwest  Level Estimated
Sun 10:39:32 AM 43.1675 -6.5437 220° Southwest  Level Estimated
Sun 10:40:32 AM 43.0896 -6.6340 220° Southwest  Level Estimated
Sun 10:41:32 AM 43.0117 -6.7239 220° Southwest  Level Estimated
Sun 10:42:32 AM 42.9336 -6.8137 220° Southwest  Level Estimated
Sun 10:43:32 AM 42.8555 -6.9032 220° Southwest  Level Estimated
Sun 10:44:32 AM 42.7774 -6.9925 220° Southwest  Level Estimated
Sun 10:45:32 AM 42.6992 -7.0816 220° Southwest  Level Estimated
Sun 10:46:32 AM 42.6208 -7.1705 220° Southwest  Level Estimated
Sun 10:47:32 AM 42.5425 -7.2591 220° Southwest  Level Estimated
Sun 10:48:32 AM 42.4641 -7.3475 220° Southwest  Level Estimated
Sun 10:49:32 AM 42.3856 -7.4357 220° Southwest  Level Estimated
Sun 10:50:32 AM 42.3070 -7.5237 220° Southwest  Level Estimated
Sun 10:51:32 AM 42.2283 -7.6114 220° Southwest  Level Estimated
Sun 10:52:32 AM 42.1496 -7.6990 219° Southwest  Level Estimated
Sun 10:53:32 AM 42.0709 -7.7863 219° Southwest  Level Estimated
Sun 10:54:32 AM 41.9920 -7.8734 219° Southwest  Level Estimated
Sun 10:55:32 AM 41.9131 -7.9602 219° Southwest  Level Estimated
Sun 10:56:32 AM 41.8342 -8.0469 219° Southwest  Level Estimated
Sun 10:57:32 AM 41.7551 -8.1334 219° Southwest  Level Estimated
Sun 10:58:32 AM 41.6760 -8.2196 219° Southwest  Level Estimated
Sun 10:59:32 AM 41.5969 -8.3056 219° Southwest  Level Estimated
Sun 11:00:32 AM 41.5176 -8.3915 219° Southwest  Level Estimated
Sun 11:01:32 AM 41.4384 -8.4771 219° Southwest  Level Estimated
Sun 11:02:32 AM 41.3590 -8.5625 219° Southwest  Level Estimated
Sun 11:03:32 AM 41.2796 -8.6476 219° Southwest  Level Estimated
Sun 11:04:32 AM 41.2001 -8.7326 39° Northeast  Level Estimated
Sun 11:05:32 AM 41.2796 -8.6476 219° Southwest  Level Estimated
Sun 11:06:32 AM 41.2001 -8.7326 39° Northeast  Level Estimated
Sun 11:07:32 AM 41.2796 -8.6476 219° Southwest  Level Estimated
Sun 11:08:32 AM 41.2001 -8.7326 39° Northeast  Level Estimated
Sun 11:09:32 AM 41.2796 -8.6476 219° Southwest  Level Estimated
Sun 11:10:32 AM 41.2001 -8.7326 39° Northeast  Level Estimated
Sun 11:11:32 AM 41.2796 -8.6476 219° Southwest  Level Estimated
Sun 11:12:32 AM 41.2001 -8.7326 39° Northeast  Level Estimated
Sun 11:13:32 AM 41.2796 -8.6476 219° Southwest  Level Estimated
Sun 11:14:32 AM 41.2001 -8.7326 39° Northeast  Level Estimated
Sun 11:15:32 AM 41.2796 -8.6476 219° Southwest  Level Estimated
Sun 11:16:32 AM 41.2001 -8.7326 39° Northeast  Level Estimated
Sun 11:17:32 AM 41.2796 -8.6476 39° Northeast  Level Estimated

Login

Don't have an account? Register now (free) for customized features, flight alerts, and more!